sensor_id;sensor_type;location;lat;lon;timestamp;pressure;altitude;pressure_sealevel;temperature;humidity
75290;BME280;63883;48.996;20.804;2023-02-01T00:01:59;96073.59;;;-1.31;82.84
75290;BME280;63883;48.996;20.804;2023-02-01T00:04:26;96067.81;;;-1.26;83.17
75290;BME280;63883;48.996;20.804;2023-02-01T00:06:52;96061.91;;;-1.34;83.15
75290;BME280;63883;48.996;20.804;2023-02-01T00:09:17;96066.78;;;-1.43;84.40
75290;BME280;63883;48.996;20.804;2023-02-01T00:11:43;96058.34;;;-1.54;84.69
75290;BME280;63883;48.996;20.804;2023-02-01T00:14:10;96069.91;;;-1.64;85.41
75290;BME280;63883;48.996;20.804;2023-02-01T00:16:35;96065.72;;;-1.65;85.86
75290;BME280;63883;48.996;20.804;2023-02-01T00:19:05;96068.34;;;-1.55;85.65
75290;BME280;63883;48.996;20.804;2023-02-01T00:21:31;96064.16;;;-1.55;86.07
75290;BME280;63883;48.996;20.804;2023-02-01T00:23:58;96050.75;;;-1.63;85.95
75290;BME280;63883;48.996;20.804;2023-02-01T00:26:31;96055.75;;;-1.63;86.79
75290;BME280;63883;48.996;20.804;2023-02-01T00:28:57;96051.53;;;-1.66;87.14
75290;BME280;63883;48.996;20.804;2023-02-01T00:31:23;96048.22;;;-1.65;86.97
75290;BME280;63883;48.996;20.804;2023-02-01T00:33:49;96022.38;;;-1.65;87.17
75290;BME280;63883;48.996;20.804;2023-02-01T00:36:15;96041.69;;;-1.53;86.56
75290;BME280;63883;48.996;20.804;2023-02-01T00:38:42;96041.59;;;-1.63;87.00
75290;BME280;63883;48.996;20.804;2023-02-01T00:41:11;96041.63;;;-1.60;87.46
75290;BME280;63883;48.996;20.804;2023-02-01T00:43:38;96051.59;;;-1.63;87.26
75290;BME280;63883;48.996;20.804;2023-02-01T00:46:04;96046.66;;;-1.57;87.76
75290;BME280;63883;48.996;20.804;2023-02-01T00:48:30;96039.25;;;-1.47;87.47
75290;BME280;63883;48.996;20.804;2023-02-01T00:51:00;96050.13;;;-1.42;86.66
75290;BME280;63883;48.996;20.804;2023-02-01T00:53:27;96033.44;;;-1.46;86.40
75290;BME280;63883;48.996;20.804;2023-02-01T00:55:53;96029.25;;;-1.47;86.81
75290;BME280;63883;48.996;20.804;2023-02-01T00:58:18;96026.06;;;-1.33;86.55
75290;BME280;63883;48.996;20.804;2023-02-01T01:00:44;96021.91;;;-1.31;86.27
75290;BME280;63883;48.996;20.804;2023-02-01T01:03:10;96022.69;;;-1.35;86.50
75290;BME280;63883;48.996;20.804;2023-02-01T01:05:48;96012.53;;;-1.50;86.09
75290;BME280;63883;48.996;20.804;2023-02-01T01:08:15;96007.34;;;-1.70;86.66
75290;BME280;63883;48.996;20.804;2023-02-01T01:10:41;96018.97;;;-1.75;87.31
75290;BME280;63883;48.996;20.804;2023-02-01T01:13:08;95998.94;;;-1.76;88.00
75290;BME280;63883;48.996;20.804;2023-02-01T01:15:38;96003.84;;;-1.85;87.87
75290;BME280;63883;48.996;20.804;2023-02-01T01:18:05;95996.94;;;-2.06;88.57
75290;BME280;63883;48.996;20.804;2023-02-01T01:20:31;95992.63;;;-2.19;88.94
75290;BME280;63883;48.996;20.804;2023-02-01T01:22:59;95994.13;;;-2.30;89.84
75290;BME280;63883;48.996;20.804;2023-02-01T01:25:24;96000.59;;;-2.48;89.95
75290;BME280;63883;48.996;20.804;2023-02-01T01:27:50;95983.81;;;-2.58;89.84
75290;BME280;63883;48.996;20.804;2023-02-01T01:30:16;95989.41;;;-2.76;89.78
75290;BME280;63883;48.996;20.804;2023-02-01T01:32:42;95996.63;;;-2.92;89.95
75290;BME280;63883;48.996;20.804;2023-02-01T01:35:08;95987.25;;;-3.07;91.00
75290;BME280;63883;48.996;20.804;2023-02-01T01:37:33;95987.91;;;-3.19;91.29
75290;BME280;63883;48.996;20.804;2023-02-01T01:40:00;95987.75;;;-3.28;91.28
75290;BME280;63883;48.996;20.804;2023-02-01T01:42:26;95985.03;;;-3.41;92.68
75290;BME280;63883;48.996;20.804;2023-02-01T01:47:26;96002.13;;;-3.13;93.32
75290;BME280;63883;48.996;20.804;2023-02-01T01:49:52;96006.53;;;-2.95;92.57
75290;BME280;63883;48.996;20.804;2023-02-01T01:52:18;96018.41;;;-2.82;90.55
75290;BME280;63883;48.996;20.804;2023-02-01T01:54:47;96000.44;;;-2.58;88.87
75290;BME280;63883;48.996;20.804;2023-02-01T01:57:20;96002.28;;;-2.47;88.29
75290;BME280;63883;48.996;20.804;2023-02-01T01:59:54;96013.06;;;-2.48;88.38
75290;BME280;63883;48.996;20.804;2023-02-01T02:02:22;96023.91;;;-2.47;88.92
75290;BME280;63883;48.996;20.804;2023-02-01T02:04:48;96030.53;;;-2.48;89.18
75290;BME280;63883;48.996;20.804;2023-02-01T02:07:17;96014.84;;;-2.39;89.24
75290;BME280;63883;48.996;20.804;2023-02-01T02:09:45;96014.28;;;-2.18;88.60
75290;BME280;63883;48.996;20.804;2023-02-01T02:12:11;96015.97;;;-2.17;88.69
75290;BME280;63883;48.996;20.804;2023-02-01T02:14:37;96018.41;;;-2.22;89.42
75290;BME280;63883;48.996;20.804;2023-02-01T02:19:47;96034.41;;;-2.09;89.70
75290;BME280;63883;48.996;20.804;2023-02-01T02:39:07;96005.81;;;-2.31;91.53
75290;BME280;63883;48.996;20.804;2023-02-01T02:44:50;95990.78;;;-2.96;92.67
75290;BME280;63883;48.996;20.804;2023-02-01T02:48:06;95975.38;;;-3.22;93.03
75290;BME280;63883;48.996;20.804;2023-02-01T02:53:41;95978.53;;;-3.33;94.41
75290;BME280;63883;48.996;20.804;2023-02-01T02:56:28;95983.88;;;-3.60;92.49
75290;BME280;63883;48.996;20.804;2023-02-01T02:59:15;95982.69;;;-3.80;93.89
75290;BME280;63883;48.996;20.804;2023-02-01T03:02:02;95979.84;;;-4.00;94.69
75290;BME280;63883;48.996;20.804;2023-02-01T03:04:46;95981.84;;;-4.24;94.96
75290;BME280;63883;48.996;20.804;2023-02-01T03:10:34;95976.06;;;-4.23;96.37
75290;BME280;63883;48.996;20.804;2023-02-01T03:19:17;95998.50;;;-4.62;97.46
75290;BME280;63883;48.996;20.804;2023-02-01T03:22:00;96013.47;;;-4.59;97.67
75290;BME280;63883;48.996;20.804;2023-02-01T03:24:36;96009.31;;;-4.60;98.07
75290;BME280;63883;48.996;20.804;2023-02-01T03:27:27;96014.97;;;-4.67;98.02
75290;BME280;63883;48.996;20.804;2023-02-01T03:30:09;96022.59;;;-4.61;98.04
75290;BME280;63883;48.996;20.804;2023-02-01T03:32:37;96021.56;;;-4.69;97.95
75290;BME280;63883;48.996;20.804;2023-02-01T03:35:32;96025.66;;;-4.72;98.17
75290;BME280;63883;48.996;20.804;2023-02-01T03:38:27;96032.41;;;-4.66;98.35
75290;BME280;63883;48.996;20.804;2023-02-01T03:40:54;96037.75;;;-4.49;98.80
75290;BME280;63883;48.996;20.804;2023-02-01T03:43:23;96032.09;;;-4.42;98.96
75290;BME280;63883;48.996;20.804;2023-02-01T03:45:56;96001.06;;;-4.19;98.77
75290;BME280;63883;48.996;20.804;2023-02-01T03:48:26;96002.78;;;-4.15;97.33
75290;BME280;63883;48.996;20.804;2023-02-01T03:50:56;96004.38;;;-4.20;97.70
75290;BME280;63883;48.996;20.804;2023-02-01T03:53:23;96015.09;;;-4.22;97.78
75290;BME280;63883;48.996;20.804;2023-02-01T03:55:51;96043.28;;;-4.23;98.58
75290;BME280;63883;48.996;20.804;2023-02-01T03:58:19;96041.78;;;-4.15;98.73
75290;BME280;63883;48.996;20.804;2023-02-01T04:00:54;96060.31;;;-4.01;98.89
75290;BME280;63883;48.996;20.804;2023-02-01T04:03:20;96070.56;;;-3.87;99.37
75290;BME280;63883;48.996;20.804;2023-02-01T04:05:48;96081.69;;;-3.70;99.21
75290;BME280;63883;48.996;20.804;2023-02-01T04:08:14;96102.88;;;-3.48;99.09
75290;BME280;63883;48.996;20.804;2023-02-01T04:10:40;96104.06;;;-3.30;98.08
75290;BME280;63883;48.996;20.804;2023-02-01T04:13:06;96116.75;;;-3.16;96.92
75290;BME280;63883;48.996;20.804;2023-02-01T04:15:32;96093.00;;;-2.97;96.87
75290;BME280;63883;48.996;20.804;2023-02-01T04:17:59;96084.91;;;-2.84;96.45
75290;BME280;63883;48.996;20.804;2023-02-01T04:20:24;96093.19;;;-2.85;97.33
75290;BME280;63883;48.996;20.804;2023-02-01T04:22:50;96091.69;;;-2.76;98.13
75290;BME280;63883;48.996;20.804;2023-02-01T04:25:16;96086.94;;;-2.59;98.77
75290;BME280;63883;48.996;20.804;2023-02-01T04:27:42;96076.66;;;-2.24;99.23
75290;BME280;63883;48.996;20.804;2023-02-01T04:30:09;96074.44;;;-2.03;98.93
75290;BME280;63883;48.996;20.804;2023-02-01T04:32:36;96070.44;;;-1.89;99.18
75290;BME280;63883;48.996;20.804;2023-02-01T04:35:03;96064.63;;;-1.88;98.76
75290;BME280;63883;48.996;20.804;2023-02-01T04:37:28;96073.78;;;-1.87;99.26
75290;BME280;63883;48.996;20.804;2023-02-01T04:39:54;96068.03;;;-1.80;99.45
75290;BME280;63883;48.996;20.804;2023-02-01T04:42:20;96064.75;;;-1.77;99.07
75290;BME280;63883;48.996;20.804;2023-02-01T04:44:46;96064.22;;;-1.50;98.69
75290;BME280;63883;48.996;20.804;2023-02-01T04:47:12;96072.72;;;-1.35;98.05
75290;BME280;63883;48.996;20.804;2023-02-01T04:49:38;96071.13;;;-1.28;97.33
75290;BME280;63883;48.996;20.804;2023-02-01T04:52:04;96072.84;;;-1.21;97.10
75290;BME280;63883;48.996;20.804;2023-02-01T04:54:30;96076.16;;;-1.22;97.54
75290;BME280;63883;48.996;20.804;2023-02-01T04:56:55;96087.13;;;-1.12;96.28
75290;BME280;63883;48.996;20.804;2023-02-01T04:59:21;96094.44;;;-1.32;95.60
75290;BME280;63883;48.996;20.804;2023-02-01T05:01:47;96101.19;;;-1.24;95.60
75290;BME280;63883;48.996;20.804;2023-02-01T05:04:12;96096.13;;;-1.30;95.57
75290;BME280;63883;48.996;20.804;2023-02-01T05:06:38;96100.13;;;-1.42;96.19
75290;BME280;63883;48.996;20.804;2023-02-01T05:09:04;96093.34;;;-1.55;96.18
75290;BME280;63883;48.996;20.804;2023-02-01T05:11:29;96079.13;;;-1.58;96.39
75290;BME280;63883;48.996;20.804;2023-02-01T05:14:14;96081.75;;;-1.49;96.43
75290;BME280;63883;48.996;20.804;2023-02-01T05:16:39;96095.84;;;-1.55;96.97
75290;BME280;63883;48.996;20.804;2023-02-01T05:19:05;96104.16;;;-1.57;97.08
75290;BME280;63883;48.996;20.804;2023-02-01T05:21:31;96087.72;;;-1.35;97.81
75290;BME280;63883;48.996;20.804;2023-02-01T05:23:56;96068.53;;;-1.37;97.13
75290;BME280;63883;48.996;20.804;2023-02-01T05:26:46;96072.84;;;-1.21;98.48
75290;BME280;63883;48.996;20.804;2023-02-01T05:29:13;96083.06;;;-1.03;99.16
75290;BME280;63883;48.996;20.804;2023-02-01T05:31:39;96078.16;;;-0.86;99.08
75290;BME280;63883;48.996;20.804;2023-02-01T05:34:05;96073.34;;;-0.63;98.03
75290;BME280;63883;48.996;20.804;2023-02-01T05:36:31;96061.78;;;-0.48;96.76
75290;BME280;63883;48.996;20.804;2023-02-01T05:38:57;96066.00;;;-0.41;95.61
75290;BME280;63883;48.996;20.804;2023-02-01T05:41:23;96074.44;;;-0.31;94.44
75290;BME280;63883;48.996;20.804;2023-02-01T05:43:49;96094.47;;;-0.31;93.50
75290;BME280;63883;48.996;20.804;2023-02-01T05:46:14;96081.13;;;-0.31;93.11
75290;BME280;63883;48.996;20.804;2023-02-01T05:48:41;96084.47;;;-0.31;91.92
75290;BME280;63883;48.996;20.804;2023-02-01T05:51:07;96105.13;;;-0.58;91.70
75290;BME280;63883;48.996;20.804;2023-02-01T05:53:33;96093.22;;;-0.83;92.30
75290;BME280;63883;48.996;20.804;2023-02-01T05:55:58;96093.00;;;-1.09;93.75
75290;BME280;63883;48.996;20.804;2023-02-01T05:58:24;96107.00;;;-1.26;94.26
75290;BME280;63883;48.996;20.804;2023-02-01T06:00:50;96083.53;;;-1.39;95.35
75290;BME280;63883;48.996;20.804;2023-02-01T06:03:16;96088.56;;;-1.34;96.06
75290;BME280;63883;48.996;20.804;2023-02-01T06:05:44;96076.22;;;-1.19;96.26
75290;BME280;63883;48.996;20.804;2023-02-01T06:08:10;96085.47;;;-1.12;95.91
75290;BME280;63883;48.996;20.804;2023-02-01T06:10:36;96069.59;;;-1.14;95.18
75290;BME280;63883;48.996;20.804;2023-02-01T06:13:02;96091.47;;;-0.95;96.21
75290;BME280;63883;48.996;20.804;2023-02-01T06:15:28;96096.38;;;-1.04;95.74
75290;BME280;63883;48.996;20.804;2023-02-01T06:17:54;96092.03;;;-1.20;94.86
75290;BME280;63883;48.996;20.804;2023-02-01T06:20:20;96106.75;;;-1.49;95.39
75290;BME280;63883;48.996;20.804;2023-02-01T06:22:46;96093.19;;;-1.69;95.59
75290;BME280;63883;48.996;20.804;2023-02-01T06:25:11;96106.50;;;-1.69;96.28
75290;BME280;63883;48.996;20.804;2023-02-01T06:27:37;96106.47;;;-1.73;96.96
75290;BME280;63883;48.996;20.804;2023-02-01T06:30:05;96099.78;;;-1.74;96.94
75290;BME280;63883;48.996;20.804;2023-02-01T06:32:32;96100.63;;;-1.72;96.46
75290;BME280;63883;48.996;20.804;2023-02-01T06:34:57;96128.00;;;-1.83;96.21
75290;BME280;63883;48.996;20.804;2023-02-01T06:37:24;96124.47;;;-1.97;96.46
75290;BME280;63883;48.996;20.804;2023-02-01T06:39:50;96115.31;;;-1.97;96.95
75290;BME280;63883;48.996;20.804;2023-02-01T06:42:17;96129.50;;;-1.94;97.08
75290;BME280;63883;48.996;20.804;2023-02-01T06:44:42;96137.94;;;-1.86;97.09
75290;BME280;63883;48.996;20.804;2023-02-01T06:47:08;96139.50;;;-1.94;96.65
75290;BME280;63883;48.996;20.804;2023-02-01T06:49:34;96147.88;;;-1.90;96.22
75290;BME280;63883;48.996;20.804;2023-02-01T06:52:00;96139.84;;;-1.68;96.13
75290;BME280;63883;48.996;20.804;2023-02-01T06:54:28;96122.31;;;-1.71;96.70
75290;BME280;63883;48.996;20.804;2023-02-01T06:56:57;96120.72;;;-1.66;97.49
75290;BME280;63883;48.996;20.804;2023-02-01T06:59:23;96116.06;;;-1.37;97.73
75290;BME280;63883;48.996;20.804;2023-02-01T07:01:49;96112.91;;;-1.20;97.12
75290;BME280;63883;48.996;20.804;2023-02-01T07:04:15;96129.66;;;-1.12;96.02
75290;BME280;63883;48.996;20.804;2023-02-01T07:06:41;96121.56;;;-0.86;95.39
75290;BME280;63883;48.996;20.804;2023-02-01T07:09:07;96117.41;;;-0.87;94.73
75290;BME280;63883;48.996;20.804;2023-02-01T07:11:33;96113.03;;;-1.06;91.05
75290;BME280;63883;48.996;20.804;2023-02-01T07:13:59;96130.03;;;-1.53;91.82
75290;BME280;63883;48.996;20.804;2023-02-01T07:16:25;96138.38;;;-1.52;91.86
75290;BME280;63883;48.996;20.804;2023-02-01T07:18:52;96139.03;;;-1.66;91.45
75290;BME280;63883;48.996;20.804;2023-02-01T07:21:19;96140.72;;;-1.65;90.57
75290;BME280;63883;48.996;20.804;2023-02-01T07:23:45;96134.13;;;-1.58;89.42
75290;BME280;63883;48.996;20.804;2023-02-01T07:26:13;96136.22;;;-1.24;90.17
75290;BME280;63883;48.996;20.804;2023-02-01T07:28:38;96153.19;;;-0.95;89.94
75290;BME280;63883;48.996;20.804;2023-02-01T07:31:09;96137.50;;;-0.77;91.22
75290;BME280;63883;48.996;20.804;2023-02-01T07:33:35;96144.41;;;-0.52;90.44
75290;BME280;63883;48.996;20.804;2023-02-01T07:36:03;96128.69;;;-0.33;90.48
75290;BME280;63883;48.996;20.804;2023-02-01T07:38:29;96124.53;;;-0.31;90.35
75290;BME280;63883;48.996;20.804;2023-02-01T07:40:59;96120.44;;;-0.23;89.95
75290;BME280;63883;48.996;20.804;2023-02-01T07:43:26;96117.13;;;-0.17;88.21
75290;BME280;63883;48.996;20.804;2023-02-01T07:45:53;96117.19;;;-0.08;87.27
75290;BME280;63883;48.996;20.804;2023-02-01T07:48:19;96118.03;;;-0.03;87.56
75290;BME280;63883;48.996;20.804;2023-02-01T07:50:45;96123.22;;;0.26;87.45
75290;BME280;63883;48.996;20.804;2023-02-01T07:53:10;96124.13;;;0.46;86.08
75290;BME280;63883;48.996;20.804;2023-02-01T07:55:40;96120.88;;;0.64;84.20
75290;BME280;63883;48.996;20.804;2023-02-01T07:58:06;96118.44;;;0.90;83.35
75290;BME280;63883;48.996;20.804;2023-02-01T08:00:32;96118.53;;;1.29;80.79
75290;BME280;63883;48.996;20.804;2023-02-01T08:03:16;96134.41;;;1.58;77.54
75290;BME280;63883;48.996;20.804;2023-02-01T08:05:43;96138.63;;;1.87;75.92
75290;BME280;63883;48.996;20.804;2023-02-01T08:08:08;96113.50;;;1.56;77.58
75290;BME280;63883;48.996;20.804;2023-02-01T08:10:34;96121.00;;;2.05;78.16
75290;BME280;63883;48.996;20.804;2023-02-01T08:13:01;96118.44;;;2.28;76.38
75290;BME280;63883;48.996;20.804;2023-02-01T08:15:28;96120.03;;;2.49;75.12
75290;BME280;63883;48.996;20.804;2023-02-01T08:17:54;96115.03;;;2.43;74.95
75290;BME280;63883;48.996;20.804;2023-02-01T08:20:21;96116.69;;;2.50;75.02
75290;BME280;63883;48.996;20.804;2023-02-01T08:22:51;96109.75;;;3.00;73.72
75290;BME280;63883;48.996;20.804;2023-02-01T08:25:17;96103.78;;;3.17;72.25
75290;BME280;63883;48.996;20.804;2023-02-01T08:27:43;96101.69;;;3.70;70.38
75290;BME280;63883;48.996;20.804;2023-02-01T08:30:10;96100.09;;;4.44;67.00
75290;BME280;63883;48.996;20.804;2023-02-01T08:32:36;96102.44;;;4.61;65.67
75290;BME280;63883;48.996;20.804;2023-02-01T08:35:03;96102.63;;;4.44;64.82
75290;BME280;63883;48.996;20.804;2023-02-01T08:37:29;96094.47;;;4.22;64.55
75290;BME280;63883;48.996;20.804;2023-02-01T08:39:55;96103.31;;;4.57;63.32
75290;BME280;63883;48.996;20.804;2023-02-01T08:42:21;96098.94;;;4.71;62.74
75290;BME280;63883;48.996;20.804;2023-02-01T08:45:05;96087.28;;;5.24;60.78
75290;BME280;63883;48.996;20.804;2023-02-01T08:47:34;96093.09;;;5.29;60.01
75290;BME280;63883;48.996;20.804;2023-02-01T08:50:00;96096.38;;;5.91;59.07
75290;BME280;63883;48.996;20.804;2023-02-01T08:52:26;96085.84;;;6.13;57.90
75290;BME280;63883;48.996;20.804;2023-02-01T08:54:52;96086.81;;;6.52;55.47
75290;BME280;63883;48.996;20.804;2023-02-01T08:57:17;96098.00;;;7.22;54.75
75290;BME280;63883;48.996;20.804;2023-02-01T08:59:43;96096.84;;;7.37;54.47
75290;BME280;63883;48.996;20.804;2023-02-01T09:02:13;96090.88;;;8.07;51.61
75290;BME280;63883;48.996;20.804;2023-02-01T09:04:40;96092.19;;;7.56;51.39
75290;BME280;63883;48.996;20.804;2023-02-01T09:07:06;96093.00;;;7.19;53.02
75290;BME280;63883;48.996;20.804;2023-02-01T09:09:32;96091.06;;;8.35;50.57
75290;BME280;63883;48.996;20.804;2023-02-01T09:11:58;96088.53;;;8.95;48.07
75290;BME280;63883;48.996;20.804;2023-02-01T09:14:24;96090.84;;;9.03;46.80
75290;BME280;63883;48.996;20.804;2023-02-01T09:16:49;96090.88;;;10.10;43.95
75290;BME280;63883;48.996;20.804;2023-02-01T09:19:15;96093.53;;;11.70;41.01
75290;BME280;63883;48.996;20.804;2023-02-01T09:21:41;96093.22;;;9.91;43.54
75290;BME280;63883;48.996;20.804;2023-02-01T09:24:09;96093.56;;;8.97;46.85
75290;BME280;63883;48.996;20.804;2023-02-01T09:26:35;96093.56;;;7.69;48.92
75290;BME280;63883;48.996;20.804;2023-02-01T09:29:02;96097.06;;;6.88;52.17
75290;BME280;63883;48.996;20.804;2023-02-01T09:31:30;96102.13;;;6.88;52.91
75290;BME280;63883;48.996;20.804;2023-02-01T09:33:56;96096.81;;;6.12;54.32
75290;BME280;63883;48.996;20.804;2023-02-01T09:36:22;96094.84;;;5.79;56.51
75290;BME280;63883;48.996;20.804;2023-02-01T09:38:49;96086.78;;;5.56;57.76
75290;BME280;63883;48.996;20.804;2023-02-01T09:46:46;96089.75;;;5.28;58.27
75290;BME280;63883;48.996;20.804;2023-02-01T09:49:16;96079.63;;;5.28;58.12
75290;BME280;63883;48.996;20.804;2023-02-01T09:51:46;96071.91;;;5.37;58.14
75290;BME280;63883;48.996;20.804;2023-02-01T09:54:23;96069.38;;;5.37;57.57
75290;BME280;63883;48.996;20.804;2023-02-01T09:56:56;96066.59;;;5.54;57.51
75290;BME280;63883;48.996;20.804;2023-02-01T09:59:40;96059.75;;;5.61;56.84
75290;BME280;63883;48.996;20.804;2023-02-01T10:02:15;96041.59;;;5.88;56.25
75290;BME280;63883;48.996;20.804;2023-02-01T10:04:43;96031.69;;;6.20;55.10
75290;BME280;63883;48.996;20.804;2023-02-01T10:25:56;96007.69;;;10.57;40.94
75290;BME280;63883;48.996;20.804;2023-02-01T10:28:26;96009.09;;;9.93;41.67
75290;BME280;63883;48.996;20.804;2023-02-01T10:30:57;96006.94;;;9.01;44.44
75290;BME280;63883;48.996;20.804;2023-02-01T10:33:33;96012.38;;;8.61;45.50
75290;BME280;63883;48.996;20.804;2023-02-01T10:36:25;96017.53;;;8.58;45.53
75290;BME280;63883;48.996;20.804;2023-02-01T10:38:53;96027.81;;;8.55;45.07
75290;BME280;63883;48.996;20.804;2023-02-01T10:41:21;96017.72;;;8.52;45.81
75290;BME280;63883;48.996;20.804;2023-02-01T10:43:54;96008.69;;;10.30;41.93
75290;BME280;63883;48.996;20.804;2023-02-01T10:46:23;96014.41;;;11.05;40.01
75290;BME280;63883;48.996;20.804;2023-02-01T10:48:52;96015.81;;;9.16;43.06
75290;BME280;63883;48.996;20.804;2023-02-01T10:51:27;96002.25;;;6.96;49.73
75290;BME280;63883;48.996;20.804;2023-02-01T10:54:03;96008.69;;;7.79;47.83
75290;BME280;63883;48.996;20.804;2023-02-01T10:56:38;96000.16;;;9.02;45.15
75290;BME280;63883;48.996;20.804;2023-02-01T10:59:06;96001.06;;;8.72;46.42
75290;BME280;63883;48.996;20.804;2023-02-01T11:01:41;95997.25;;;9.14;44.10
75290;BME280;63883;48.996;20.804;2023-02-01T11:04:16;95996.97;;;9.50;43.37
75290;BME280;63883;48.996;20.804;2023-02-01T11:06:51;95996.00;;;8.99;44.75
75290;BME280;63883;48.996;20.804;2023-02-01T11:09:19;95988.94;;;8.52;45.70
75290;BME280;63883;48.996;20.804;2023-02-01T11:14:17;95989.44;;;5.78;53.87
75290;BME280;63883;48.996;20.804;2023-02-01T11:16:48;95993.19;;;5.57;54.03
75290;BME280;63883;48.996;20.804;2023-02-01T11:19:16;95984.06;;;5.48;55.18
75290;BME280;63883;48.996;20.804;2023-02-01T11:21:43;95975.09;;;6.63;52.63
75290;BME280;63883;48.996;20.804;2023-02-01T11:24:32;95980.44;;;7.25;50.00
75290;BME280;63883;48.996;20.804;2023-02-01T11:27:14;95975.06;;;7.37;50.50
75290;BME280;63883;48.996;20.804;2023-02-01T11:29:44;95974.75;;;7.83;48.11
75290;BME280;63883;48.996;20.804;2023-02-01T11:32:13;95966.16;;;7.56;48.92
75290;BME280;63883;48.996;20.804;2023-02-01T11:34:46;95972.41;;;6.31;51.58
75290;BME280;63883;48.996;20.804;2023-02-01T11:37:28;95965.28;;;6.08;52.73
75290;BME280;63883;48.996;20.804;2023-02-01T11:39:56;95965.19;;;6.54;51.44
75290;BME280;63883;48.996;20.804;2023-02-01T11:42:23;95968.63;;;6.88;50.05
75290;BME280;63883;48.996;20.804;2023-02-01T11:44:49;95975.41;;;6.88;50.78
75290;BME280;63883;48.996;20.804;2023-02-01T11:47:29;95966.75;;;6.58;51.46
75290;BME280;63883;48.996;20.804;2023-02-01T11:50:01;95956.53;;;6.99;50.29
75290;BME280;63883;48.996;20.804;2023-02-01T12:06:55;95942.00;;;7.06;48.30
75290;BME280;63883;48.996;20.804;2023-02-01T12:37:15;95952.50;;;4.04;60.79
75290;BME280;63883;48.996;20.804;2023-02-01T12:40:33;95950.97;;;3.92;60.92
75290;BME280;63883;48.996;20.804;2023-02-01T12:42:36;95955.16;;;3.93;61.58
75290;BME280;63883;48.996;20.804;2023-02-01T12:45:24;95961.13;;;3.87;62.35
75290;BME280;63883;48.996;20.804;2023-02-01T12:50:40;95955.00;;;4.08;60.84
75290;BME280;63883;48.996;20.804;2023-02-01T12:55:58;95946.09;;;3.78;61.87
75290;BME280;63883;48.996;20.804;2023-02-01T12:58:33;95935.97;;;3.81;62.35
75290;BME280;63883;48.996;20.804;2023-02-01T13:01:56;95940.00;;;3.96;62.02
75290;BME280;63883;48.996;20.804;2023-02-01T13:06:59;95949.09;;;4.08;62.78
75290;BME280;63883;48.996;20.804;2023-02-01T13:09:42;95941.34;;;4.24;61.35
75290;BME280;63883;48.996;20.804;2023-02-01T13:12:32;95941.63;;;3.99;62.62
75290;BME280;63883;48.996;20.804;2023-02-01T13:15:15;95933.19;;;4.03;62.76
75290;BME280;63883;48.996;20.804;2023-02-01T13:17:43;95942.28;;;4.16;62.14
75290;BME280;63883;48.996;20.804;2023-02-01T13:23:00;95930.69;;;4.00;63.62
75290;BME280;63883;48.996;20.804;2023-02-01T13:25:48;95921.66;;;3.82;64.41
75290;BME280;63883;48.996;20.804;2023-02-01T13:33:38;95910.25;;;4.19;63.46
75290;BME280;63883;48.996;20.804;2023-02-01T13:41:31;95920.31;;;4.24;62.36
75290;BME280;63883;48.996;20.804;2023-02-01T13:44:02;95912.88;;;4.12;63.29
75290;BME280;63883;48.996;20.804;2023-02-01T13:46:30;95914.06;;;3.86;64.83
75290;BME280;63883;48.996;20.804;2023-02-01T13:49:03;95913.28;;;3.80;65.46
75290;BME280;63883;48.996;20.804;2023-02-01T13:51:45;95908.53;;;3.54;65.10
75290;BME280;63883;48.996;20.804;2023-02-01T13:56:57;95908.69;;;3.40;65.86
75290;BME280;63883;48.996;20.804;2023-02-01T14:00:04;95914.75;;;3.23;67.08
75290;BME280;63883;48.996;20.804;2023-02-01T14:05:10;95913.78;;;3.36;66.43
75290;BME280;63883;48.996;20.804;2023-02-01T14:10:48;95902.56;;;3.61;64.97
75290;BME280;63883;48.996;20.804;2023-02-01T14:13:40;95904.41;;;3.48;65.17
75290;BME280;63883;48.996;20.804;2023-02-01T14:23:46;95908.03;;;3.97;62.33
75290;BME280;63883;48.996;20.804;2023-02-01T14:26:18;95909.84;;;3.88;62.29
75290;BME280;63883;48.996;20.804;2023-02-01T14:28:50;95905.53;;;3.95;62.07
75290;BME280;63883;48.996;20.804;2023-02-01T14:33:57;95902.44;;;3.73;61.84
75290;BME280;63883;48.996;20.804;2023-02-01T14:36:24;95902.47;;;3.70;61.89
75290;BME280;63883;48.996;20.804;2023-02-01T14:38:51;95899.03;;;3.77;61.47
75290;BME280;63883;48.996;20.804;2023-02-01T14:41:25;95901.47;;;3.83;62.21
75290;BME280;63883;48.996;20.804;2023-02-01T14:49:38;95899.19;;;4.31;59.59
75290;BME280;63883;48.996;20.804;2023-02-01T14:52:12;95891.75;;;4.19;60.22
75290;BME280;63883;48.996;20.804;2023-02-01T14:54:41;95887.09;;;4.50;58.96
75290;BME280;63883;48.996;20.804;2023-02-01T14:57:15;95880.88;;;5.67;56.76
75290;BME280;63883;48.996;20.804;2023-02-01T14:59:45;95878.19;;;6.16;54.28
75290;BME280;63883;48.996;20.804;2023-02-01T15:02:21;95879.44;;;6.36;53.61
75290;BME280;63883;48.996;20.804;2023-02-01T15:04:55;95884.94;;;5.74;56.24
75290;BME280;63883;48.996;20.804;2023-02-01T15:07:22;95879.44;;;4.54;60.64
75290;BME280;63883;48.996;20.804;2023-02-01T15:09:50;95878.53;;;4.02;63.02
75290;BME280;63883;48.996;20.804;2023-02-01T15:12:22;95880.50;;;3.81;63.41
75290;BME280;63883;48.996;20.804;2023-02-01T15:17:37;95871.69;;;3.44;65.40
75290;BME280;63883;48.996;20.804;2023-02-01T15:20:13;95875.28;;;3.20;66.94
75290;BME280;63883;48.996;20.804;2023-02-01T15:22:39;95878.91;;;2.93;68.93
75290;BME280;63883;48.996;20.804;2023-02-01T15:25:21;95884.16;;;2.72;69.38
75290;BME280;63883;48.996;20.804;2023-02-01T15:27:47;95887.66;;;2.51;70.85
75290;BME280;63883;48.996;20.804;2023-02-01T15:30:23;95884.28;;;2.52;71.14
75290;BME280;63883;48.996;20.804;2023-02-01T15:32:50;95891.81;;;2.54;68.86
75290;BME280;63883;48.996;20.804;2023-02-01T15:35:38;95894.44;;;2.39;70.14
75290;BME280;63883;48.996;20.804;2023-02-01T15:38:31;95890.28;;;2.38;69.42
75290;BME280;63883;48.996;20.804;2023-02-01T15:41:01;95892.81;;;2.34;70.06
75290;BME280;63883;48.996;20.804;2023-02-01T15:43:30;95890.34;;;2.28;71.21
75290;BME280;63883;48.996;20.804;2023-02-01T15:46:06;95898.81;;;2.12;73.32